createdAt,value
2023-04-21T00:01:53.756Z,0.02
2023-04-21T00:06:39.942Z,0.01
2023-04-21T01:32:44.925Z,0.02
2023-04-21T01:35:24.846Z,0.01
2023-04-21T02:55:43.901Z,0.02
2023-04-21T03:15:24.236Z,0.03
2023-04-21T03:32:00.859Z,0.04
2023-04-21T03:34:38.159Z,0.05
2023-04-21T03:37:01.653Z,0.07
2023-04-21T03:39:19.625Z,0.09
2023-04-21T03:42:08.583Z,0.14
2023-04-21T03:44:52.187Z,0.21
2023-04-21T03:47:21.709Z,0.32
2023-04-21T03:49:37.207Z,0.45
2023-04-21T03:51:38.832Z,0.74
2023-04-21T03:54:28.443Z,1.2
2023-04-21T03:57:04.013Z,1.84
2023-04-21T03:59:25.561Z,2.8
2023-04-21T04:01:33.252Z,3.64
2023-04-21T04:04:29.117Z,5.8
2023-04-21T04:07:10.567Z,9.53
2023-04-21T04:09:38.366Z,12.28
2023-04-21T04:11:52.116Z,15.57
2023-04-21T04:13:51.826Z,19.63
2023-04-21T04:16:39.281Z,26.32
2023-04-21T04:19:13.094Z,34.86
2023-04-21T04:21:32.840Z,43.52
2023-04-21T04:23:38.846Z,56.8
2023-04-21T04:26:32.826Z,63.34
2023-04-21T04:29:12.752Z,79.26
2023-04-21T04:31:38.658Z,89.48
2023-04-21T04:33:52.153Z,99.6
2023-04-21T04:35:48.719Z,105.08
2023-04-21T04:38:34.853Z,106.96
2023-04-21T04:41:06.870Z,113.12
2023-04-21T04:43:25.001Z,124.44
2023-04-21T04:45:29.098Z,139.68
2023-04-21T04:48:21.374Z,152.52
2023-04-21T04:50:59.609Z,190.6
2023-04-21T04:53:23.875Z,205.8
2023-04-21T04:55:34.221Z,193.6
2023-04-21T04:57:30.541Z,196.9
2023-04-21T05:00:14.823Z,210.9
2023-04-21T05:02:45.104Z,225.9
2023-04-21T05:05:01.457Z,241.3
2023-04-21T05:07:03.304Z,252.9
2023-04-21T05:09:53.628Z,277.5
2023-04-21T05:12:30.178Z,301.8
2023-04-21T05:14:52.678Z,330.5
2023-04-21T05:17:01.080Z,360.9
2023-04-21T05:19:57.645Z,391.8
2023-04-21T05:22:40.222Z,432.8
2023-04-21T05:25:08.727Z,461.6
2023-04-21T05:27:23.226Z,481.6
2023-04-21T05:29:23.848Z,500.3
2023-04-21T05:32:12.566Z,539.5
2023-04-21T05:34:47.069Z,564.6
2023-04-21T05:37:07.864Z,610.5
2023-04-21T05:39:14.662Z,665.2
2023-04-21T05:42:09.460Z,773.7
2023-04-21T05:44:50.402Z,927
2023-04-21T05:47:17.547Z,1035.2
2023-04-21T05:49:30.190Z,1074.5
2023-04-21T05:51:29.118Z,1096.3
2023-04-21T05:54:16.123Z,1137.6
2023-04-21T05:56:49.006Z,1120.6
2023-04-21T05:59:07.520Z,1102.4
2023-04-21T06:01:12.367Z,1034.8
2023-04-21T06:04:05.495Z,1037.1
2023-04-21T06:06:44.255Z,1056.3
2023-04-21T06:09:09.440Z,1148.1
2023-04-21T06:11:20.509Z,1264.3
2023-04-21T06:13:17.516Z,1354.8
2023-04-21T06:16:02.840Z,1464.9
2023-04-21T06:18:33.863Z,1505.2
2023-04-21T06:20:51.071Z,1597.4
2023-04-21T06:22:54.341Z,1623.6
2023-04-21T06:25:45.621Z,1698
2023-04-21T06:28:22.828Z,1869
2023-04-21T06:30:45.979Z,1982
2023-04-21T06:32:55.362Z,2008
2023-04-21T06:35:52.734Z,2314
2023-04-21T06:38:35.834Z,2182
2023-04-21T06:41:05.267Z,2275
2023-04-21T06:43:20.663Z,2282
2023-04-21T06:45:21.976Z,2156
2023-04-21T06:48:11.578Z,2052
2023-04-21T06:50:46.635Z,2122
2023-04-21T06:53:08.074Z,2359
2023-04-21T06:55:16.155Z,2958
2023-04-21T06:58:11.384Z,3413
2023-04-21T07:00:52.996Z,4247
2023-04-21T07:03:20.555Z,4344
2023-04-21T07:05:34.155Z,4023
2023-04-21T07:07:33.773Z,3907
2023-04-21T07:10:21.330Z,3406
2023-04-21T07:12:55.079Z,3987
2023-04-21T07:15:14.755Z,3522
2023-04-21T07:17:20.409Z,2841
2023-04-21T07:20:14.298Z,2538
2023-04-21T07:22:54.145Z,2772
2023-04-21T07:25:20.014Z,2984
2023-04-21T07:27:31.715Z,3072
2023-04-21T07:29:29.630Z,2769
2023-04-21T07:32:15.502Z,2713
2023-04-21T07:34:47.386Z,2886
2023-04-21T07:37:05.326Z,2991
2023-04-21T07:39:09.392Z,3266
2023-04-21T07:42:00.927Z,3486
2023-04-21T07:44:39.069Z,3662
2023-04-21T07:47:03.238Z,3976
2023-04-21T07:49:13.197Z,3752
2023-04-21T07:51:09.459Z,3571
2023-04-21T07:53:53.704Z,3758
2023-04-21T07:56:23.921Z,3770
2023-04-21T07:58:39.980Z,3571
2023-04-21T08:00:42.291Z,3398
2023-04-21T08:03:32.697Z,3342
2023-04-21T08:06:08.988Z,3150
2023-04-21T08:08:31.998Z,3211
2023-04-21T08:10:39.487Z,3432
2023-04-21T08:13:35.758Z,3645
2023-04-21T08:16:18.341Z,3463
2023-04-21T08:18:46.834Z,3308
2023-04-21T08:21:01.570Z,3306
2023-04-21T08:23:01.977Z,3348
2023-04-21T08:25:50.538Z,3517
2023-04-21T08:28:25.055Z,3688
2023-04-21T08:30:45.621Z,3877
2023-04-21T08:32:51.821Z,3843
2023-04-21T08:35:55.361Z,3952
2023-04-21T08:38:26.969Z,4103
2023-04-21T08:40:53.674Z,4294
2023-04-21T08:43:06.849Z,4212
2023-04-21T08:45:05.162Z,4256
2023-04-21T08:47:52.257Z,4488
2023-04-21T08:50:25.171Z,4668
2023-04-21T08:52:43.973Z,4533
2023-04-21T08:54:49.067Z,4090
2023-04-21T08:57:42.178Z,4199
2023-04-21T09:00:21.693Z,4468
2023-04-21T09:02:46.252Z,4678
2023-04-21T09:04:57.849Z,4811
2023-04-21T09:06:54.356Z,3930
2023-04-21T09:09:39.356Z,3535
2023-04-21T09:12:10.565Z,3503
2023-04-21T09:14:27.735Z,3795
2023-04-21T09:16:30.872Z,4033
2023-04-21T09:19:22.340Z,4174
2023-04-21T09:21:59.494Z,3560
2023-04-21T09:24:22.200Z,3294
2023-04-21T09:26:31.552Z,3297
2023-04-21T09:29:28.882Z,3365
2023-04-21T09:32:12.161Z,3737
2023-04-21T09:34:41.429Z,4099
2023-04-21T09:36:56.877Z,3952
2023-04-21T09:39:17.769Z,3424
2023-04-21T09:41:47.758Z,3148
2023-04-21T09:44:23.647Z,2900
2023-04-21T09:46:45.158Z,3509
2023-04-21T09:48:52.108Z,4057
2023-04-21T09:54:30.274Z,4102
2023-04-21T09:56:56.762Z,3717
2023-04-21T09:59:10.198Z,3662
2023-04-21T10:01:09.877Z,4229
2023-04-21T10:03:57.587Z,4344
2023-04-21T10:06:31.013Z,4583
2023-04-21T10:08:50.705Z,4907
2023-04-21T10:10:56.391Z,5693
2023-04-21T10:13:50.037Z,6031
2023-04-21T10:16:29.320Z,6773
2023-04-21T10:18:54.905Z,7001
2023-04-21T10:21:06.550Z,6238
2023-04-21T10:23:04.280Z,5560
2023-04-21T10:25:49.963Z,4945
2023-04-21T10:28:02.726Z,4702
2023-04-21T10:30:01.552Z,5404
2023-04-21T10:32:48.134Z,5105
2023-04-21T10:35:20.948Z,5670
2023-04-21T10:37:39.701Z,5675
2023-04-21T10:39:44.372Z,6000
2023-04-21T10:42:37.336Z,6259
2023-04-21T10:45:15.892Z,5962
2023-04-21T10:47:40.740Z,5591
2023-04-21T10:49:51.654Z,4217
2023-04-21T10:51:48.658Z,3644
2023-04-21T10:54:33.518Z,3072
2023-04-21T10:57:04.370Z,4080
2023-04-21T10:59:21.403Z,4702
2023-04-21T11:01:24.427Z,4513
2023-04-21T11:04:15.454Z,4202
2023-04-21T11:06:51.841Z,4180
2023-04-21T11:09:14.870Z,4290
2023-04-21T11:11:23.854Z,4468
2023-04-21T11:14:21.036Z,5032
2023-04-21T11:17:04.047Z,5011
2023-04-21T11:19:33.036Z,5365
2023-04-21T11:21:48.072Z,5859
2023-04-21T11:23:49.340Z,5527
2023-04-21T11:26:38.430Z,5885
2023-04-21T11:29:13.485Z,5719
2023-04-21T11:31:34.850Z,6105
2023-04-21T11:33:43.635Z,5972
2023-04-21T11:36:37.218Z,4130
2023-04-21T11:39:20.950Z,5278
2023-04-21T11:41:45.989Z,4097
2023-04-21T11:43:59.332Z,3738
2023-04-21T11:45:58.977Z,3317
2023-04-21T11:48:46.349Z,3178
2023-04-21T11:51:22.100Z,2805
2023-04-21T11:53:39.042Z,3891
2023-04-21T11:55:44.634Z,4755
2023-04-21T11:58:37.704Z,5747
2023-04-21T12:01:17.160Z,5885
2023-04-21T12:03:43.111Z,5667
2023-04-21T12:05:54.989Z,5452
2023-04-21T12:07:52.549Z,5473
2023-04-21T12:10:38.582Z,5373
2023-04-21T12:13:10.626Z,5296
2023-04-21T12:15:28.406Z,6126
2023-04-21T12:17:32.470Z,6031
2023-04-21T12:20:24.388Z,5875
2023-04-21T12:23:02.307Z,5149
2023-04-21T12:25:26.294Z,4730
2023-04-21T12:27:36.450Z,4570
2023-04-21T12:29:32.492Z,4454
2023-04-21T12:32:16.413Z,4487
2023-04-21T12:34:46.646Z,4236
2023-04-21T12:37:02.795Z,4682
2023-04-21T12:39:04.925Z,5281
2023-04-21T12:41:55.193Z,6389
2023-04-21T12:44:31.464Z,7004
2023-04-21T12:46:53.591Z,6947
2023-04-21T12:49:01.531Z,7127
2023-04-21T12:51:57.823Z,6784
2023-04-21T12:54:40.183Z,6190
2023-04-21T12:57:08.393Z,5729
2023-04-21T12:59:22.829Z,5276
2023-04-21T13:01:23.318Z,4578
2023-04-21T13:04:11.849Z,3773
2023-04-21T13:06:46.138Z,3818
2023-04-21T13:09:06.734Z,4040
2023-04-21T13:11:13.226Z,3834
2023-04-21T13:14:07.983Z,3470
2023-04-21T13:16:48.668Z,3256
2023-04-21T13:19:15.178Z,3123
2023-04-21T13:21:27.842Z,3133
2023-04-21T13:23:26.997Z,3148
2023-04-21T13:26:13.369Z,3105
2023-04-21T13:28:46.096Z,3139
2023-04-21T13:31:05.048Z,3096
2023-04-21T13:33:09.981Z,3157
2023-04-21T13:36:02.681Z,3055
2023-04-21T13:38:41.692Z,2964
2023-04-21T13:41:06.253Z,2954
2023-04-21T13:43:17.244Z,2950
2023-04-21T13:45:14.368Z,2917
2023-04-21T13:47:59.511Z,2984
2023-04-21T13:50:30.479Z,2899
2023-04-21T13:52:47.562Z,2826
2023-04-21T13:54:50.774Z,2743
2023-04-21T13:57:41.957Z,2864
2023-04-21T14:00:19.097Z,2883
2023-04-21T14:02:42.547Z,2887
2023-04-21T14:04:51.748Z,2892
2023-04-21T14:07:48.743Z,2846
2023-04-21T14:10:32.170Z,2840
2023-04-21T14:13:01.605Z,2745
2023-04-21T14:15:16.878Z,2749
2023-04-21T14:17:18.298Z,2734
2023-04-21T14:20:07.676Z,2673
2023-04-21T14:22:43.065Z,2696
2023-04-21T14:25:04.478Z,2635
2023-04-21T14:27:12.045Z,2569
2023-04-21T14:30:07.638Z,2528
2023-04-21T14:32:48.656Z,2490
2023-04-21T14:35:16.288Z,2483
2023-04-21T14:37:29.872Z,2445
2023-04-21T14:39:29.393Z,2433
2023-04-21T14:42:17.210Z,2380
2023-04-21T14:44:50.867Z,2343
2023-04-21T14:47:11.024Z,2257
2023-04-21T14:52:09.796Z,2220
2023-04-21T14:54:49.285Z,2169
2023-04-21T14:57:19.478Z,2172
2023-04-21T14:59:26.794Z,2147
2023-04-21T15:01:26.033Z,2129
2023-04-21T15:04:10.434Z,2081
2023-04-21T15:06:42.192Z,2030
2023-04-21T15:09:00.189Z,1987
2023-04-21T15:11:04.311Z,1942
2023-04-21T15:13:55.980Z,1912
2023-04-21T15:16:33.946Z,1870
2023-04-21T15:18:57.914Z,1817
2023-04-21T15:21:07.981Z,1790
2023-04-21T15:23:03.822Z,1787
2023-04-21T15:25:47.786Z,1764
2023-04-21T15:28:17.857Z,1725
2023-04-21T15:30:34.118Z,1708
2023-04-21T15:32:36.255Z,1671
2023-04-21T15:35:26.462Z,1643
2023-04-21T15:38:02.862Z,1597.4
2023-04-21T15:40:25.122Z,1638
2023-04-21T15:42:33.391Z,1100.8
2023-04-21T15:45:29.686Z,1560.9
2023-04-21T15:48:12.008Z,1493.7
2023-04-21T15:50:40.310Z,1520.6
2023-04-21T15:52:54.587Z,1486.7
2023-04-21T15:54:55.070Z,1480.3
2023-04-21T15:57:43.488Z,1430.4
2023-04-21T16:00:17.939Z,1409.2
2023-04-21T16:02:38.733Z,1381.7
2023-04-21T16:04:45.558Z,1362.5
2023-04-21T16:07:39.656Z,1346.5
2023-04-21T16:10:20.343Z,1324.1
2023-04-21T16:12:46.905Z,1281.9
2023-04-21T16:15:03.827Z,1298.2
2023-04-21T16:16:57.990Z,1297.6
2023-04-21T16:19:44.589Z,1267.2
2023-04-21T16:22:17.297Z,1264.9
2023-04-21T16:24:36.031Z,1247
2023-04-21T16:26:40.862Z,1209.6
2023-04-21T16:29:33.391Z,1198.7
2023-04-21T16:32:12.189Z,1201.6
2023-04-21T16:34:37.345Z,1212.8
2023-04-21T16:36:48.018Z,1195.8
2023-04-21T16:38:44.940Z,1172.8
2023-04-21T16:41:29.889Z,1129.9
2023-04-21T16:44:00.903Z,1087.3
2023-04-21T16:46:17.859Z,1072.6
2023-04-21T16:48:21.156Z,1039
2023-04-21T16:51:12.253Z,990.4
2023-04-21T16:53:49.364Z,957.1
2023-04-21T16:56:12.366Z,940.1
2023-04-21T16:58:21.575Z,924.1
2023-04-21T17:01:18.794Z,902.4
2023-04-21T17:04:02.101Z,876.1
2023-04-21T17:06:30.790Z,842.5
2023-04-21T17:08:45.988Z,747.2
2023-04-21T17:10:47.222Z,754.2
2023-04-21T17:13:36.521Z,759.6
2023-04-21T17:16:11.922Z,721.2
2023-04-21T17:18:33.187Z,691.8
2023-04-21T17:20:40.805Z,619.5
2023-04-21T17:23:36.119Z,554.4
2023-04-21T17:26:17.529Z,516.6
2023-04-21T17:28:44.979Z,511.5
2023-04-21T17:31:13.547Z,491.2
2023-04-21T17:33:08.772Z,453.9
2023-04-21T17:35:56.113Z,418
2023-04-21T17:38:19.366Z,389.2
2023-04-21T17:40:39.046Z,367
2023-04-21T17:42:44.670Z,351.6
2023-04-21T17:45:38.487Z,329.1
2023-04-21T17:48:18.193Z,304.3
2023-04-21T17:50:43.949Z,276.9
2023-04-21T17:52:55.667Z,256
2023-04-21T17:54:53.577Z,261.6
2023-04-21T17:57:38.967Z,290
2023-04-21T18:00:10.838Z,275.6
2023-04-21T18:02:28.784Z,251.6
2023-04-21T18:04:32.726Z,195.9
2023-04-21T18:07:24.795Z,145.56
2023-04-21T18:10:02.700Z,137.04
2023-04-21T18:12:26.643Z,123.52
2023-04-21T18:14:36.775Z,108.24
2023-04-21T18:16:32.826Z,89.6
2023-04-21T18:19:16.890Z,73.1
2023-04-21T18:21:46.861Z,61.28
2023-04-21T18:24:02.770Z,52
2023-04-21T18:26:04.826Z,43.7
2023-04-21T18:28:54.865Z,34.81
2023-04-21T18:31:30.853Z,29.55
2023-04-21T18:33:53.006Z,25.4
2023-04-21T18:36:01.202Z,20.24
2023-04-21T18:38:57.265Z,14.57
2023-04-21T18:41:39.603Z,9.58
2023-04-21T18:44:07.928Z,6.46
2023-04-21T18:46:22.250Z,4.78
2023-04-21T18:48:22.144Z,3.6
2023-04-21T18:51:10.388Z,2.36
2023-04-21T18:53:44.680Z,1.55
2023-04-21T18:56:04.952Z,1.14
2023-04-21T18:58:11.433Z,0.75
2023-04-21T19:01:05.879Z,0.46
2023-04-21T19:03:46.394Z,0.31
2023-04-21T19:06:12.748Z,0.21
2023-04-21T19:08:38.526Z,0.15
2023-04-21T19:10:23.734Z,0.11
2023-04-21T19:13:10.313Z,0.08
2023-04-21T19:15:42.956Z,0.06
2023-04-21T19:18:01.565Z,0.05
2023-04-21T19:20:06.295Z,0.04
2023-04-21T19:54:41.689Z,0.03
2023-04-21T20:02:08.603Z,0.02
2023-04-21T20:31:37.084Z,0.01
2023-04-21T20:36:01.847Z,0.02
2023-04-21T20:38:54.977Z,0.01
2023-04-21T20:41:34.373Z,0.02
2023-04-21T20:48:08.719Z,0.01
2023-04-21T20:50:54.133Z,0.02
2023-04-21T21:04:47.825Z,0.04
2023-04-21T21:14:54.773Z,0.02
2023-04-21T21:16:51.680Z,0.01
2023-04-21T21:24:23.528Z,0.02
2023-04-21T21:54:16.494Z,0.01
2023-04-21T22:54:34.764Z,0.02
2023-04-21T22:59:48.644Z,0.03
2023-04-21T23:02:04.699Z,0.02
2023-04-21T23:06:56.413Z,0.01
2023-04-21T23:11:54.560Z,0.02
2023-04-21T23:16:58.954Z,0.01
2023-04-21T23:19:41.369Z,0.02
2023-04-21T23:53:45.881Z,0.01
2023-04-21T23:58:08.944Z,0.02
